Time;durP1;ratioP1;P1;durP2;ratioP2;P2;SDS_P1;SDS_P2;PMS_P1;PMS_P2;Temp;Humidity;BMP_temperature;BMP_pressure;BME280_temperature;BME280_humidity;BME280_pressure;Samples;Min_cycle;Max_cycle;Signal;HPM_P1;HPM_P2
2023/04/03 00:00:45;;;;;;;;;;;4.70;78.80;;;;;;4952741;28;19922;-77
2023/04/03 00:03:10;;;;;;;;;;;4.70;78.80;;;;;;4982036;28;20307;-78
2023/04/03 00:05:36;;;;;;;;;;;4.70;78.80;;;;;;4960684;28;19929;-76
2023/04/03 00:08:07;;;;;;;;;;;4.60;78.70;;;;;;4969544;28;20017;-76
2023/04/03 00:10:33;;;;;;;;;;;4.60;78.80;;;;;;4956982;28;19929;-76
2023/04/03 00:12:58;;;;;;;;;;;4.60;78.80;;;;;;4986026;28;19921;-77
2023/04/03 00:15:24;;;;;;;;;;;4.60;78.80;;;;;;4975787;28;20356;-78
2023/04/03 00:17:49;;;;;;;;;;;4.60;78.80;;;;;;4973092;28;19961;-78
2023/04/03 00:20:15;;;;;;;;;;;4.60;78.80;;;;;;4974452;28;19957;-78
2023/04/03 00:22:40;;;;;;;;;;;4.60;78.80;;;;;;4960666;28;19922;-79
2023/04/03 00:25:06;;;;;;;;;;;4.60;78.80;;;;;;4952331;28;19964;-77
2023/04/03 00:27:31;;;;;;;;;;;4.60;78.80;;;;;;4965927;28;19922;-78
2023/04/03 00:29:57;;;;;;;;;;;4.50;78.80;;;;;;4957672;28;19980;-77
2023/04/03 00:32:22;;;;;;;;;;;4.60;78.80;;;;;;4950528;28;20448;-78
2023/04/03 00:34:48;;;;;;;;;;;4.50;78.90;;;;;;4967736;28;19930;-78
2023/04/03 00:37:13;;;;;;;;;;;4.50;78.80;;;;;;4950828;28;20527;-77
2023/04/03 00:39:39;;;;;;;;;;;4.50;78.90;;;;;;4940341;28;19934;-77
2023/04/03 00:42:04;;;;;;;;;;;4.50;78.90;;;;;;4963754;28;20732;-79
2023/04/03 00:44:33;;;;;;;;;;;4.50;79.00;;;;;;4951190;28;21425;-78
2023/04/03 00:46:58;;;;;;;;;;;4.50;78.90;;;;;;4956371;28;20072;-77
2023/04/03 00:49:24;;;;;;;;;;;4.50;78.90;;;;;;4955197;28;19925;-76
2023/04/03 00:51:50;;;;;;;;;;;4.50;78.90;;;;;;4950365;28;19925;-77
2023/04/03 00:54:16;;;;;;;;;;;4.50;78.90;;;;;;4953034;28;19926;-77
2023/04/03 00:56:42;;;;;;;;;;;4.50;78.90;;;;;;4962093;28;20586;-76
2023/04/03 00:59:13;;;;;;;;;;;4.60;79.00;;;;;;4963777;28;19965;-79
2023/04/03 01:01:38;;;;;;;;;;;4.60;79.80;;;;;;4964505;28;20025;-76
2023/04/03 01:04:05;;;;;;;;;;;4.60;79.00;;;;;;4967300;28;19923;-76
2023/04/03 01:06:32;;;;;;;;;;;4.60;79.00;;;;;;4953061;28;19933;-77
2023/04/03 01:08:58;;;;;;;;;;;4.60;79.00;;;;;;4947014;28;20447;-77
2023/04/03 01:11:23;;;;;;;;;;;4.60;79.00;;;;;;4936827;28;19918;-78
2023/04/03 01:13:49;;;;;;;;;;;4.60;78.90;;;;;;4950988;28;19923;-78
2023/04/03 01:16:14;;;;;;;;;;;4.60;79.00;;;;;;4950876;28;20514;-76
2023/04/03 01:18:40;;;;;;;;;;;4.50;78.90;;;;;;4953299;28;20000;-79
2023/04/03 01:21:17;;;;;;;;;;;4.50;78.90;;;;;;4951959;28;20447;-78
2023/04/03 01:23:43;;;;;;;;;;;4.50;78.90;;;;;;4953758;28;19929;-78
2023/04/03 01:26:09;;;;;;;;;;;4.50;78.90;;;;;;4954478;28;19927;-78
2023/04/03 01:28:35;;;;;;;;;;;4.50;79.00;;;;;;4950078;28;19924;-78
2023/04/03 01:31:12;;;;;;;;;;;4.50;79.00;;;;;;4935312;28;19929;-78
2023/04/03 01:33:38;;;;;;;;;;;4.50;79.00;;;;;;4951285;28;20021;-78
2023/04/03 01:36:03;;;;;;;;;;;4.50;79.10;;;;;;4951867;28;20659;-76
2023/04/03 01:38:29;;;;;;;;;;;4.50;79.10;;;;;;4962828;28;20395;-79
2023/04/03 01:40:54;;;;;;;;;;;4.40;79.00;;;;;;4953292;28;21607;-76
2023/04/03 01:43:20;;;;;;;;;;;4.50;79.90;;;;;;4964166;28;20352;-78
2023/04/03 01:45:46;;;;;;;;;;;4.50;79.00;;;;;;4951696;28;19929;-77
2023/04/03 01:48:12;;;;;;;;;;;4.40;79.00;;;;;;4950691;28;20404;-77
2023/04/03 01:50:37;;;;;;;;;;;4.50;79.10;;;;;;4951211;28;19922;-79
2023/04/03 01:53:03;;;;;;;;;;;4.50;79.00;;;;;;4952004;28;19922;-79
2023/04/03 01:55:28;;;;;;;;;;;4.50;79.10;;;;;;4954532;28;20579;-78
2023/04/03 01:57:54;;;;;;;;;;;4.50;79.10;;;;;;4953980;28;20834;-79
2023/04/03 02:00:19;;;;;;;;;;;4.50;79.10;;;;;;4948674;28;20006;-80
2023/04/03 02:02:45;;;;;;;;;;;4.50;79.10;;;;;;4922017;28;20411;-78
2023/04/03 02:05:10;;;;;;;;;;;4.40;79.00;;;;;;4952410;28;19965;-79
2023/04/03 02:07:36;;;;;;;;;;;4.50;79.20;;;;;;4950842;28;20309;-76
2023/04/03 02:10:01;;;;;;;;;;;4.50;79.10;;;;;;4953529;28;19926;-79
2023/04/03 02:12:27;;;;;;;;;;;4.50;79.10;;;;;;4960149;28;20011;-76
2023/04/03 02:14:52;;;;;;;;;;;4.50;79.10;;;;;;4952048;28;20691;-77
2023/04/03 02:17:17;;;;;;;;;;;4.50;79.10;;;;;;4950990;28;19922;-79
2023/04/03 02:19:43;;;;;;;;;;;4.50;79.10;;;;;;4949547;28;20416;-79
2023/04/03 02:22:09;;;;;;;;;;;4.50;79.10;;;;;;4938253;28;19933;-77
2023/04/03 02:24:34;;;;;;;;;;;4.50;79.50;;;;;;4964868;28;20411;-76
2023/04/03 02:27:00;;;;;;;;;;;4.50;79.10;;;;;;4953191;28;19922;-78
2023/04/03 02:29:25;;;;;;;;;;;4.50;79.10;;;;;;4963688;28;19987;-78
2023/04/03 02:31:51;;;;;;;;;;;4.50;79.10;;;;;;4947543;28;19922;-77
2023/04/03 02:34:16;;;;;;;;;;;4.50;79.10;;;;;;4952532;28;19922;-77
2023/04/03 02:36:42;;;;;;;;;;;4.50;79.10;;;;;;4950377;28;20515;-76
2023/04/03 02:39:07;;;;;;;;;;;4.50;79.10;;;;;;4946844;28;20008;-79
2023/04/03 02:41:36;;;;;;;;;;;4.50;79.10;;;;;;4963393;28;19922;-79
2023/04/03 02:44:01;;;;;;;;;;;4.50;79.10;;;;;;4950729;28;19925;-76
2023/04/03 02:46:27;;;;;;;;;;;4.50;79.20;;;;;;4946743;28;20601;-78
2023/04/03 02:48:52;;;;;;;;;;;4.50;79.10;;;;;;4948170;28;19922;-79
2023/04/03 02:51:18;;;;;;;;;;;4.50;79.10;;;;;;4953886;28;20017;-78
2023/04/03 02:53:43;;;;;;;;;;;4.50;79.10;;;;;;4952213;28;19984;-79
2023/04/03 02:56:09;;;;;;;;;;;4.40;79.10;;;;;;4966367;28;19949;-78
2023/04/03 02:58:35;;;;;;;;;;;4.40;79.00;;;;;;4951503;28;19922;-77
2023/04/03 03:01:00;;;;;;;;;;;4.50;79.10;;;;;;4953022;28;20292;-78
2023/04/03 03:03:26;;;;;;;;;;;4.40;79.10;;;;;;4953888;28;19926;-77
2023/04/03 03:06:00;;;;;;;;;;;4.40;79.10;;;;;;4947852;28;19922;-79
2023/04/03 03:08:26;;;;;;;;;;;4.40;79.10;;;;;;4967201;28;19929;-78
2023/04/03 03:10:51;;;;;;;;;;;4.40;79.10;;;;;;4970027;28;19922;-78
2023/04/03 03:13:17;;;;;;;;;;;4.40;79.10;;;;;;4970182;28;20568;-79
2023/04/03 03:15:42;;;;;;;;;;;4.50;79.20;;;;;;4971522;28;19993;-78
2023/04/03 03:18:08;;;;;;;;;;;4.50;79.10;;;;;;4985871;28;19930;-79
2023/04/03 03:20:33;;;;;;;;;;;4.40;79.10;;;;;;4991649;28;19984;-77
2023/04/03 03:22:59;;;;;;;;;;;4.50;79.20;;;;;;4966385;28;19952;-77
2023/04/03 03:25:24;;;;;;;;;;;4.50;79.20;;;;;;4986118;28;19922;-78
2023/04/03 03:27:50;;;;;;;;;;;4.50;79.20;;;;;;4984102;28;19926;-79
2023/04/03 03:30:15;;;;;;;;;;;4.50;79.20;;;;;;4969271;28;20000;-78
2023/04/03 03:32:40;;;;;;;;;;;4.50;79.20;;;;;;4970061;28;19976;-77
2023/04/03 03:35:06;;;;;;;;;;;4.50;79.20;;;;;;4966623;28;19926;-79
2023/04/03 03:37:31;;;;;;;;;;;4.50;79.10;;;;;;4982175;28;20344;-78
2023/04/03 03:39:57;;;;;;;;;;;4.50;79.10;;;;;;4971636;28;19925;-79
2023/04/03 03:42:22;;;;;;;;;;;4.50;79.20;;;;;;4983067;28;20621;-78
2023/04/03 03:44:48;;;;;;;;;;;4.50;79.10;;;;;;4969850;28;19929;-77
2023/04/03 03:47:13;;;;;;;;;;;4.50;79.10;;;;;;4954984;28;19918;-80
2023/04/03 03:49:39;;;;;;;;;;;4.50;79.10;;;;;;4972540;28;19930;-78
2023/04/03 03:52:05;;;;;;;;;;;4.50;79.10;;;;;;4968364;28;19922;-79
2023/04/03 03:54:30;;;;;;;;;;;4.50;79.10;;;;;;4968946;28;19922;-77
2023/04/03 03:56:55;;;;;;;;;;;4.50;79.10;;;;;;4987215;28;19971;-76
2023/04/03 03:59:21;;;;;;;;;;;4.50;79.10;;;;;;4975141;28;20588;-79
2023/04/03 04:01:47;;;;;;;;;;;4.50;79.10;;;;;;4973828;28;19922;-79
2023/04/03 04:04:12;;;;;;;;;;;4.40;79.00;;;;;;4975512;28;20447;-78
2023/04/03 04:06:38;;;;;;;;;;;4.40;79.00;;;;;;4975572;28;19922;-79
2023/04/03 04:09:03;;;;;;;;;;;4.40;79.00;;;;;;4974668;28;19921;-77
2023/04/03 04:11:28;;;;;;;;;;;4.40;79.00;;;;;;4977889;28;19981;-78
2023/04/03 04:13:54;;;;;;;;;;;4.40;79.00;;;;;;4968863;28;19932;-78
2023/04/03 04:16:20;;;;;;;;;;;4.40;79.10;;;;;;4956649;28;20032;-79
2023/04/03 04:18:45;;;;;;;;;;;4.40;79.20;;;;;;4973226;28;19926;-78
2023/04/03 04:21:11;;;;;;;;;;;4.30;79.10;;;;;;4983739;28;19921;-78
2023/04/03 04:23:36;;;;;;;;;;;4.30;79.10;;;;;;4977400;28;20530;-77
2023/04/03 04:26:01;;;;;;;;;;;4.30;79.10;;;;;;4976316;28;21339;-75
2023/04/03 04:28:27;;;;;;;;;;;4.20;79.10;;;;;;4970605;28;19918;-78
2023/04/03 04:30:52;;;;;;;;;;;4.20;79.10;;;;;;4970798;28;19945;-78
2023/04/03 04:33:18;;;;;;;;;;;4.20;79.20;;;;;;4975664;28;19928;-77
2023/04/03 04:35:43;;;;;;;;;;;4.20;79.20;;;;;;4971487;28;19921;-77
2023/04/03 04:38:09;;;;;;;;;;;4.20;79.10;;;;;;4956634;28;19934;-79
2023/04/03 04:40:35;;;;;;;;;;;4.10;79.10;;;;;;4982288;28;19925;-76
2023/04/03 04:43:00;;;;;;;;;;;4.10;79.10;;;;;;4971065;28;19953;-78
2023/04/03 04:45:26;;;;;;;;;;;4.10;79.10;;;;;;4983630;28;19930;-76
2023/04/03 04:47:52;;;;;;;;;;;4.00;79.10;;;;;;4986520;28;19926;-78
2023/04/03 04:50:18;;;;;;;;;;;4.00;79.10;;;;;;4956404;28;19950;-78
2023/04/03 04:52:43;;;;;;;;;;;4.00;79.10;;;;;;4956255;28;20005;-77
2023/04/03 04:55:09;;;;;;;;;;;3.90;79.10;;;;;;4964130;28;19922;-78
2023/04/03 04:57:35;;;;;;;;;;;3.90;79.10;;;;;;4955336;28;20548;-77
2023/04/03 05:00:00;;;;;;;;;;;3.90;79.10;;;;;;4951705;28;19961;-78
2023/04/03 05:02:25;;;;;;;;;;;3.90;79.20;;;;;;4952021;28;20606;-75
2023/04/03 05:04:51;;;;;;;;;;;3.80;79.10;;;;;;4951751;28;19923;-77
2023/04/03 05:07:17;;;;;;;;;;;3.80;79.20;;;;;;4964277;28;20303;-77
2023/04/03 05:09:42;;;;;;;;;;;3.70;79.10;;;;;;4963835;28;19922;-76
2023/04/03 05:12:08;;;;;;;;;;;3.70;79.20;;;;;;4953271;28;20083;-76
2023/04/03 05:14:33;;;;;;;;;;;3.70;79.30;;;;;;4945426;28;19922;-77
2023/04/03 05:16:59;;;;;;;;;;;3.60;79.20;;;;;;4947919;28;19922;-79
2023/04/03 05:19:24;;;;;;;;;;;3.60;79.30;;;;;;4949763;28;20001;-76
2023/04/03 05:21:50;;;;;;;;;;;3.50;79.20;;;;;;4944568;28;20629;-79
2023/04/03 05:24:15;;;;;;;;;;;3.50;79.20;;;;;;4952940;28;19928;-77
2023/04/03 05:26:41;;;;;;;;;;;3.50;79.30;;;;;;4963789;28;20433;-78
2023/04/03 05:29:07;;;;;;;;;;;3.50;79.30;;;;;;4951482;28;19922;-77
2023/04/03 05:31:32;;;;;;;;;;;3.50;79.30;;;;;;4952635;28;20479;-79
2023/04/03 05:33:58;;;;;;;;;;;3.50;79.40;;;;;;4948878;28;19922;-79
2023/04/03 05:36:23;;;;;;;;;;;3.50;79.40;;;;;;4961701;28;19922;-76
2023/04/03 05:38:49;;;;;;;;;;;3.50;79.40;;;;;;4936936;28;19930;-77
2023/04/03 05:41:14;;;;;;;;;;;3.50;79.40;;;;;;4957323;28;20905;-78
2023/04/03 05:43:40;;;;;;;;;;;3.50;79.40;;;;;;4953698;28;19933;-77
2023/04/03 05:46:15;;;;;;;;;;;3.50;79.40;;;;;;4939198;28;20416;-77
2023/04/03 05:48:41;;;;;;;;;;;3.50;79.40;;;;;;4950880;28;19926;-77
2023/04/03 05:51:06;;;;;;;;;;;3.50;79.40;;;;;;4967019;28;20388;-79
2023/04/03 05:53:33;;;;;;;;;;;3.50;79.30;;;;;;4953821;28;19926;-78
2023/04/03 05:55:58;;;;;;;;;;;3.60;79.30;;;;;;4951454;28;19926;-78
2023/04/03 05:58:24;;;;;;;;;;;3.60;79.30;;;;;;4953063;28;19987;-76
2023/04/03 06:00:49;;;;;;;;;;;3.60;79.30;;;;;;4954193;28;20325;-76
2023/04/03 06:03:15;;;;;;;;;;;3.60;79.30;;;;;;4958084;28;20347;-79
2023/04/03 06:05:41;;;;;;;;;;;3.60;79.20;;;;;;4939966;28;20014;-75
2023/04/03 06:08:06;;;;;;;;;;;3.60;79.30;;;;;;4939307;28;19923;-74
2023/04/03 06:10:32;;;;;;;;;;;3.60;79.30;;;;;;4953335;28;20278;-76
2023/04/03 06:12:57;;;;;;;;;;;3.70;79.30;;;;;;4962890;28;20397;-78
2023/04/03 06:15:23;;;;;;;;;;;3.70;79.30;;;;;;4947350;28;19926;-78
2023/04/03 06:17:48;;;;;;;;;;;3.70;79.30;;;;;;4943687;28;20412;-78
2023/04/03 06:20:14;;;;;;;;;;;3.80;79.30;;;;;;4939289;28;19922;-78
2023/04/03 06:22:40;;;;;;;;;;;3.80;79.30;;;;;;4955920;28;20313;-79
2023/04/03 06:25:06;;;;;;;;;;;3.80;79.20;;;;;;4950819;28;19918;-77
2023/04/03 06:27:31;;;;;;;;;;;3.90;79.30;;;;;;4950499;28;19934;-78
2023/04/03 06:29:57;;;;;;;;;;;3.90;79.20;;;;;;4950487;28;19923;-78
2023/04/03 06:32:22;;;;;;;;;;;3.90;79.20;;;;;;4954959;28;19966;-79
2023/04/03 06:34:47;;;;;;;;;;;4.00;79.20;;;;;;4962244;28;20579;-77
2023/04/03 06:37:22;;;;;;;;;;;4.00;79.20;;;;;;4960657;28;19930;-77
2023/04/03 06:39:49;;;;;;;;;;;4.00;79.10;;;;;;4953619;28;20300;-78
2023/04/03 06:42:15;;;;;;;;;;;4.10;79.20;;;;;;4955280;28;20797;-78
2023/04/03 06:44:41;;;;;;;;;;;4.10;79.10;;;;;;4950131;28;19929;-78
2023/04/03 06:47:08;;;;;;;;;;;4.20;79.20;;;;;;4947398;28;19926;-79
2023/04/03 06:49:33;;;;;;;;;;;4.20;79.10;;;;;;4963867;28;19922;-76
2023/04/03 06:51:59;;;;;;;;;;;4.30;79.10;;;;;;4950629;28;19938;-78
2023/04/03 06:54:25;;;;;;;;;;;4.30;79.00;;;;;;4951134;28;19922;-78
2023/04/03 06:56:50;;;;;;;;;;;4.40;79.00;;;;;;4948368;28;19977;-77
2023/04/03 06:59:16;;;;;;;;;;;4.50;79.10;;;;;;4950562;28;19988;-76
2023/04/03 07:01:42;;;;;;;;;;;4.50;79.00;;;;;;4939907;28;20008;-75
2023/04/03 07:04:07;;;;;;;;;;;4.60;79.00;;;;;;4965851;28;20387;-77
2023/04/03 07:06:33;;;;;;;;;;;4.60;78.90;;;;;;4951666;28;19929;-77
2023/04/03 07:08:59;;;;;;;;;;;4.70;78.90;;;;;;4966749;28;20161;-77
2023/04/03 07:11:24;;;;;;;;;;;4.80;78.80;;;;;;4946404;28;19929;-77
2023/04/03 07:13:50;;;;;;;;;;;4.90;78.80;;;;;;4953545;28;20399;-79
2023/04/03 07:16:15;;;;;;;;;;;5.00;78.70;;;;;;4965722;28;19926;-78
2023/04/03 07:18:41;;;;;;;;;;;5.10;78.70;;;;;;4935715;28;19930;-77
2023/04/03 07:21:07;;;;;;;;;;;5.10;78.60;;;;;;4949514;28;21361;-76
2023/04/03 07:23:32;;;;;;;;;;;5.20;78.60;;;;;;4952050;28;19926;-79
2023/04/03 07:25:58;;;;;;;;;;;5.30;78.60;;;;;;4953001;28;20372;-77
2023/04/03 07:28:23;;;;;;;;;;;5.40;78.40;;;;;;4965121;28;19922;-76
2023/04/03 07:30:51;;;;;;;;;;;5.50;78.40;;;;;;4965395;28;19928;-76
2023/04/03 07:33:17;;;;;;;;;;;5.60;78.40;;;;;;4955513;28;20404;-77
2023/04/03 07:35:42;;;;;;;;;;;5.70;78.30;;;;;;4953188;28;19918;-77
2023/04/03 07:38:08;;;;;;;;;;;5.80;78.20;;;;;;4958347;28;19930;-79
2023/04/03 07:40:34;;;;;;;;;;;5.90;78.20;;;;;;4972301;28;19922;-78
2023/04/03 07:43:00;;;;;;;;;;;6.00;78.20;;;;;;4959499;28;20621;-77
2023/04/03 07:45:25;;;;;;;;;;;6.00;77.90;;;;;;4955054;28;20005;-78
2023/04/03 07:47:51;;;;;;;;;;;6.10;77.80;;;;;;4958738;28;19922;-79
2023/04/03 07:50:17;;;;;;;;;;;6.20;77.80;;;;;;4959474;28;19922;-80
2023/04/03 07:52:42;;;;;;;;;;;6.30;77.70;;;;;;4958674;28;20348;-78
2023/04/03 07:55:08;;;;;;;;;;;6.50;77.70;;;;;;4957760;28;19999;-79
2023/04/03 07:57:33;;;;;;;;;;;6.50;77.60;;;;;;4954495;28;19929;-78
2023/04/03 07:59:59;;;;;;;;;;;6.60;77.50;;;;;;4956361;28;19960;-78
2023/04/03 08:02:25;;;;;;;;;;;6.70;77.40;;;;;;4967059;28;19960;-78
2023/04/03 08:04:50;;;;;;;;;;;6.80;77.20;;;;;;4949001;28;19955;-76
2023/04/03 08:07:15;;;;;;;;;;;6.90;77.20;;;;;;4958638;28;19921;-81
2023/04/03 08:09:41;;;;;;;;;;;7.00;77.20;;;;;;4957017;28;19929;-78
2023/04/03 08:12:07;;;;;;;;;;;7.10;77.10;;;;;;4970370;28;19923;-78
2023/04/03 08:14:34;;;;;;;;;;;7.20;77.00;;;;;;4969182;28;19950;-78
2023/04/03 08:17:00;;;;;;;;;;;7.30;76.90;;;;;;4941124;28;20296;-77
2023/04/03 08:19:25;;;;;;;;;;;7.40;76.80;;;;;;4963488;28;19926;-78
2023/04/03 08:21:51;;;;;;;;;;;7.50;76.70;;;;;;4951295;28;19928;-78
2023/04/03 08:24:16;;;;;;;;;;;7.70;76.40;;;;;;4939598;28;19974;-79
2023/04/03 08:26:42;;;;;;;;;;;7.80;76.30;;;;;;4957278;28;20710;-77
2023/04/03 08:29:07;;;;;;;;;;;7.90;76.20;;;;;;4964167;28;19934;-77
2023/04/03 08:31:33;;;;;;;;;;;8.00;76.00;;;;;;4955646;28;19922;-77
2023/04/03 08:33:58;;;;;;;;;;;8.10;76.00;;;;;;4950312;28;19922;-77
2023/04/03 08:36:25;;;;;;;;;;;8.20;75.70;;;;;;4955411;28;19976;-78
2023/04/03 08:38:51;;;;;;;;;;;8.30;75.70;;;;;;4952693;28;19930;-78
2023/04/03 08:41:17;;;;;;;;;;;8.40;75.60;;;;;;4958412;28;21188;-78
2023/04/03 08:43:51;;;;;;;;;;;8.50;75.60;;;;;;4964965;28;19919;-76
2023/04/03 08:46:17;;;;;;;;;;;8.50;75.40;;;;;;4954671;28;19926;-78
2023/04/03 08:48:42;;;;;;;;;;;8.60;75.40;;;;;;4970105;28;20628;-79
2023/04/03 08:51:14;;;;;;;;;;;8.60;75.30;;;;;;4965426;28;19962;-79
2023/04/03 08:53:41;;;;;;;;;;;8.70;75.40;;;;;;4938933;28;19937;-78
2023/04/03 08:56:07;;;;;;;;;;;8.80;75.30;;;;;;4953711;28;19942;-79
2023/04/03 08:58:37;;;;;;;;;;;8.90;75.10;;;;;;4937445;28;21305;-79
2023/04/03 09:01:04;;;;;;;;;;;8.90;75.10;;;;;;4969577;28;20020;-78
2023/04/03 09:03:30;;;;;;;;;;;9.00;74.70;;;;;;4968853;28;19926;-79
2023/04/03 09:06:06;;;;;;;;;;;9.10;74.60;;;;;;4950599;28;19929;-79
2023/04/03 09:09:01;;;;;;;;;;;9.30;74.60;;;;;;4946445;28;19929;-78
2023/04/03 09:11:28;;;;;;;;;;;9.40;74.50;;;;;;4977066;28;19922;-80
2023/04/03 09:13:54;;;;;;;;;;;9.60;74.40;;;;;;4958066;28;21130;-78
2023/04/03 09:16:21;;;;;;;;;;;9.60;74.00;;;;;;4951677;28;19952;-78
2023/04/03 09:18:48;;;;;;;;;;;9.60;74.00;;;;;;4961794;28;19934;-77
2023/04/03 09:21:20;;;;;;;;;;;9.70;74.10;;;;;;4938398;28;19930;-78
2023/04/03 09:23:47;;;;;;;;;;;9.70;74.00;;;;;;4970228;28;19945;-78
2023/04/03 09:26:17;;;;;;;;;;;9.70;73.80;;;;;;4951600;28;19961;-78
2023/04/03 09:28:42;;;;;;;;;;;9.80;74.00;;;;;;4953735;28;20018;-78
2023/04/03 09:31:14;;;;;;;;;;;9.90;74.00;;;;;;4965481;28;21216;-79
2023/04/03 09:33:39;;;;;;;;;;;10.00;74.00;;;;;;4951339;28;19922;-78
2023/04/03 09:36:05;;;;;;;;;;;10.20;73.90;;;;;;4936076;28;19925;-78
2023/04/03 09:38:31;;;;;;;;;;;10.40;73.60;;;;;;4951553;28;20667;-78
2023/04/03 09:41:07;;;;;;;;;;;10.60;72.90;;;;;;4960701;28;19929;-80
2023/04/03 09:43:34;;;;;;;;;;;10.70;72.80;;;;;;4964731;28;19996;-79
2023/04/03 09:46:18;;;;;;;;;;;10.80;72.60;;;;;;4941162;28;19937;-77
2023/04/03 09:48:50;;;;;;;;;;;10.80;72.60;;;;;;4953783;28;19926;-80
2023/04/03 09:51:16;;;;;;;;;;;10.90;72.50;;;;;;4947884;28;19929;-79
2023/04/03 09:53:42;;;;;;;;;;;10.90;72.20;;;;;;4963855;28;20797;-79
2023/04/03 09:56:16;;;;;;;;;;;10.90;72.30;;;;;;4947085;28;19933;-79
2023/04/03 09:59:02;;;;;;;;;;;11.00;72.30;;;;;;4962335;28;19933;-77
2023/04/03 10:01:28;;;;;;;;;;;11.10;72.20;;;;;;4970499;28;19964;-78
2023/04/03 10:04:08;;;;;;;;;;;11.20;72.30;;;;;;4985235;28;20320;-78
2023/04/03 10:06:40;;;;;;;;;;;11.30;72.30;;;;;;4974945;28;20526;-79
2023/04/03 10:09:26;;;;;;;;;;;11.50;71.90;;;;;;4971389;28;19929;-78
2023/04/03 10:12:01;;;;;;;;;;;11.70;71.70;;;;;;4973879;28;20281;-80
2023/04/03 10:14:26;;;;;;;;;;;11.80;71.20;;;;;;4971727;28;19925;-77
2023/04/03 10:16:55;;;;;;;;;;;11.90;70.90;;;;;;4981415;28;19984;-78
2023/04/03 10:19:34;;;;;;;;;;;11.90;71.10;;;;;;4951373;28;19927;-77
2023/04/03 10:22:02;;;;;;;;;;;12.00;70.90;;;;;;4962442;28;19922;-80
2023/04/03 10:24:48;;;;;;;;;;;12.10;71.10;;;;;;4967015;28;19929;-79
2023/04/03 10:27:34;;;;;;;;;;;12.30;71.00;;;;;;4951826;28;19922;-79
2023/04/03 10:30:03;;;;;;;;;;;12.40;70.60;;;;;;4971007;28;19925;-81
2023/04/03 10:32:47;;;;;;;;;;;12.50;70.20;;;;;;4959717;28;19925;-78
2023/04/03 10:35:36;;;;;;;;;;;12.50;70.00;;;;;;4970435;28;20402;-78
2023/04/03 10:38:15;;;;;;;;;;;12.60;69.60;;;;;;4982375;28;20342;-79
2023/04/03 10:40:46;;;;;;;;;;;12.70;69.80;;;;;;4981355;28;19961;-78
2023/04/03 10:43:16;;;;;;;;;;;12.80;69.90;;;;;;4973694;28;19922;-81
2023/04/03 10:45:56;;;;;;;;;;;13.00;69.70;;;;;;4958877;28;19929;-79
2023/04/03 10:48:24;;;;;;;;;;;13.10;69.30;;;;;;4971359;28;19933;-76
2023/04/03 10:50:59;;;;;;;;;;;13.20;69.60;;;;;;4973742;28;19928;-79
2023/04/03 10:53:32;;;;;;;;;;;13.40;69.50;;;;;;4948856;28;20045;-80
2023/04/03 10:56:01;;;;;;;;;;;13.60;69.30;;;;;;4971653;28;19926;-80
2023/04/03 10:58:31;;;;;;;;;;;13.70;69.10;;;;;;4978840;28;19933;-77
2023/04/03 11:00:58;;;;;;;;;;;13.80;68.60;;;;;;4966564;28;20385;-80
2023/04/03 11:03:31;;;;;;;;;;;13.90;68.80;;;;;;4984625;28;19921;-81
2023/04/03 11:05:57;;;;;;;;;;;14.00;68.60;;;;;;4957058;28;19929;-81
2023/04/03 11:08:33;;;;;;;;;;;14.00;68.30;;;;;;4942688;28;19921;-81
2023/04/03 11:11:00;;;;;;;;;;;14.00;68.00;;;;;;4951775;28;20109;-79
2023/04/03 11:13:25;;;;;;;;;;;13.90;67.90;;;;;;4952950;28;19933;-81
2023/04/03 11:15:51;;;;;;;;;;;13.90;68.00;;;;;;4965059;28;19922;-78
2023/04/03 11:18:25;;;;;;;;;;;13.90;67.60;;;;;;4969162;28;19929;-77
2023/04/03 11:20:59;;;;;;;;;;;13.90;68.00;;;;;;4955335;28;20013;-78
2023/04/03 11:23:25;;;;;;;;;;;13.80;67.80;;;;;;4952715;28;19977;-78
2023/04/03 11:25:53;;;;;;;;;;;13.80;68.00;;;;;;4954469;28;19922;-79
2023/04/03 11:28:18;;;;;;;;;;;13.80;68.20;;;;;;4957101;28;19918;-80
2023/04/03 11:30:55;;;;;;;;;;;13.90;68.20;;;;;;4958718;28;19970;-80
2023/04/03 11:33:24;;;;;;;;;;;14.00;68.20;;;;;;4960225;28;19997;-80
2023/04/03 11:35:51;;;;;;;;;;;14.20;67.90;;;;;;4954153;28;19993;-80
2023/04/03 11:38:30;;;;;;;;;;;14.20;67.80;;;;;;4953613;28;19926;-78
2023/04/03 11:40:56;;;;;;;;;;;14.10;67.50;;;;;;4951411;28;19929;-75
2023/04/03 11:43:25;;;;;;;;;;;14.10;67.70;;;;;;4957421;28;19930;-79
2023/04/03 11:46:19;;;;;;;;;;;14.10;67.80;;;;;;4960448;28;20410;-81
2023/04/03 11:48:45;;;;;;;;;;;14.10;67.90;;;;;;4974631;28;20432;-82
2023/04/03 11:51:16;;;;;;;;;;;14.10;67.60;;;;;;4988999;28;20048;-77
2023/04/03 11:53:41;;;;;;;;;;;14.10;67.80;;;;;;4975549;28;20380;-75
2023/04/03 11:56:30;;;;;;;;;;;14.10;67.90;;;;;;4961142;28;19922;-79
2023/04/03 11:59:04;;;;;;;;;;;14.30;68.00;;;;;;4977186;28;19926;-77
2023/04/03 12:01:49;;;;;;;;;;;14.50;67.90;;;;;;4976221;28;20011;-78
2023/04/03 12:04:15;;;;;;;;;;;14.70;67.60;;;;;;4976690;28;19930;-81
2023/04/03 12:06:41;;;;;;;;;;;14.90;67.20;;;;;;4975927;28;19946;-75
2023/04/03 12:09:22;;;;;;;;;;;15.00;67.00;;;;;;4992942;28;19968;-78
2023/04/03 12:11:48;;;;;;;;;;;15.00;66.90;;;;;;4981038;28;19922;-77
2023/04/03 12:14:16;;;;;;;;;;;15.00;66.80;;;;;;4981762;28;19929;-81
2023/04/03 12:16:43;;;;;;;;;;;15.00;66.60;;;;;;4979063;28;20000;-80
2023/04/03 12:19:15;;;;;;;;;;;14.90;66.80;;;;;;4962421;28;20559;-79
2023/04/03 12:21:56;;;;;;;;;;;14.90;66.80;;;;;;4976219;28;19926;-79
2023/04/03 12:24:26;;;;;;;;;;;14.90;66.90;;;;;;4975840;28;19923;-81
2023/04/03 12:27:02;;;;;;;;;;;14.90;66.70;;;;;;4957124;28;19931;-82
2023/04/03 12:29:32;;;;;;;;;;;14.90;66.70;;;;;;4968647;28;19926;-80
2023/04/03 12:32:07;;;;;;;;;;;15.00;66.80;;;;;;4978592;28;19928;-78
2023/04/03 12:34:39;;;;;;;;;;;15.00;66.90;;;;;;4975572;28;20498;-81
2023/04/03 12:37:23;;;;;;;;;;;15.00;66.80;;;;;;4973171;28;20018;-78
2023/04/03 12:39:52;;;;;;;;;;;15.00;66.50;;;;;;4975230;28;19929;-78
2023/04/03 12:42:30;;;;;;;;;;;14.90;66.90;;;;;;4977821;28;19926;-80
2023/04/03 12:45:07;;;;;;;;;;;14.90;66.90;;;;;;4959024;28;19972;-77
2023/04/03 12:47:35;;;;;;;;;;;15.00;66.70;;;;;;4975713;28;19923;-80
2023/04/03 12:50:02;;;;;;;;;;;15.10;66.80;;;;;;4969340;28;19980;-80
2023/04/03 12:52:38;;;;;;;;;;;15.20;66.80;;;;;;4973535;28;19922;-79
2023/04/03 12:55:07;;;;;;;;;;;15.30;66.60;;;;;;4975300;28;20000;-78
2023/04/03 12:57:32;;;;;;;;;;;15.50;66.70;;;;;;4977630;28;20016;-82
2023/04/03 12:59:58;;;;;;;;;;;15.60;66.50;;;;;;4962209;28;20623;-78
2023/04/03 13:02:24;;;;;;;;;;;15.80;66.40;;;;;;4970898;28;19929;-77
2023/04/03 13:04:51;;;;;;;;;;;16.00;66.20;;;;;;4956720;28;20462;-78
2023/04/03 13:07:20;;;;;;;;;;;16.10;65.90;;;;;;4955801;28;19922;-79
2023/04/03 13:09:48;;;;;;;;;;;16.10;65.70;;;;;;4955220;28;19980;-77
2023/04/03 13:12:15;;;;;;;;;;;16.20;65.70;;;;;;4954863;28;19919;-80
2023/04/03 13:14:40;;;;;;;;;;;16.20;65.80;;;;;;4953765;28;19927;-79
2023/04/03 13:17:10;;;;;;;;;;;16.40;65.90;;;;;;4954938;28;19928;-78
2023/04/03 13:19:35;;;;;;;;;;;16.40;65.70;;;;;;4966784;28;19933;-81
2023/04/03 13:22:02;;;;;;;;;;;16.50;65.60;;;;;;4942146;28;19923;-79
2023/04/03 13:24:29;;;;;;;;;;;16.60;65.50;;;;;;4955357;28;19921;-79
2023/04/03 13:26:55;;;;;;;;;;;16.60;65.30;;;;;;4943231;28;19934;-79
2023/04/03 13:29:25;;;;;;;;;;;16.70;65.50;;;;;;4967789;28;20175;-81
2023/04/03 13:31:52;;;;;;;;;;;16.80;65.40;;;;;;4956854;28;20029;-78
2023/04/03 13:34:18;;;;;;;;;;;16.90;65.10;;;;;;4955719;28;19923;-80
2023/04/03 13:36:49;;;;;;;;;;;17.00;65.10;;;;;;4955742;28;19922;-80
2023/04/03 13:39:18;;;;;;;;;;;17.10;64.80;;;;;;4951474;28;19930;-78
2023/04/03 13:41:47;;;;;;;;;;;17.00;64.80;;;;;;4954074;28;19926;-81
2023/04/03 13:44:22;;;;;;;;;;;17.00;64.60;;;;;;4942973;28;19922;-79
2023/04/03 13:46:57;;;;;;;;;;;17.00;64.80;;;;;;4964796;28;19973;-79
2023/04/03 13:49:26;;;;;;;;;;;17.10;65.00;;;;;;4957272;28;19929;-81
2023/04/03 13:51:51;;;;;;;;;;;17.20;64.70;;;;;;4987110;28;20583;-80
2023/04/03 13:54:24;;;;;;;;;;;17.20;64.70;;;;;;4974227;28;19922;-79
2023/04/03 13:56:54;;;;;;;;;;;17.30;64.70;;;;;;4973565;28;19921;-80
2023/04/03 13:59:24;;;;;;;;;;;17.40;64.40;;;;;;4962173;28;19933;-80
2023/04/03 14:01:54;;;;;;;;;;;17.40;64.30;;;;;;4975425;28;19926;-79
2023/04/03 14:04:27;;;;;;;;;;;17.40;64.30;;;;;;4959247;28;20397;-80
2023/04/03 14:06:53;;;;;;;;;;;17.30;64.40;;;;;;4953329;28;19926;-80
2023/04/03 14:09:19;;;;;;;;;;;17.40;64.20;;;;;;4949293;28;19931;-80
2023/04/03 14:11:45;;;;;;;;;;;17.30;64.20;;;;;;4954634;28;20002;-82
2023/04/03 14:14:17;;;;;;;;;;;17.30;64.30;;;;;;4969395;28;19922;-80
2023/04/03 14:16:44;;;;;;;;;;;17.40;64.50;;;;;;4965835;28;19918;-79
2023/04/03 14:19:23;;;;;;;;;;;17.50;64.40;;;;;;4952435;28;19953;-78
2023/04/03 14:21:48;;;;;;;;;;;17.60;65.00;;;;;;4949182;28;20281;-78
2023/04/03 14:24:14;;;;;;;;;;;17.60;64.00;;;;;;4949961;28;19929;-79
2023/04/03 14:26:39;;;;;;;;;;;17.70;64.00;;;;;;4952703;28;19929;-78
2023/04/03 14:29:05;;;;;;;;;;;17.80;64.00;;;;;;4936210;28;19923;-79